Laurel — ZCOV6 — position and weather

sailwx.info

Track history (hours):
 
Tides and Currents Weather Stations Pressure Air Temp Water Temp Dewpoint Dewpoint Depression Visibility Wind Speed Wind Dir Waves Ship Positions

Laurel

Last reported at 2015-Aug-31 13:09 UTC. Time now 2015-Sep-01 03:59 UTC.
Position N 37°21' E 023°28'.

Length 73 m; draft 3.7 m.

Type: Pleasure craft. MMSI: 319914000.

Date/timePositionNaut miles runAvg speedWind from/ knotsBaromVisibWave heightAir tempDewpointWater temp
2015-Aug-31 13:09N 37°21' E 023°28'1 0.6
2015-Aug-31 11:28N 37°21' E 023°27'96 7.3
2015-Aug-30 22:21N 36°21' E 024°60'1113.9
2015-Aug-30 21:33N 36°21' E 025°13'9 8.9
2015-Aug-30 20:30N 36°21' E 025°25'0 0.0
2015-Aug-30 19:06N 36°21' E 025°25'0 0.0
2015-Aug-30 17:27N 36°21' E 025°25'0 0.0
2015-Aug-30 13:30N 36°21' E 025°25'0 0.0
2015-Aug-30 12:24N 36°21' E 025°25'0 0.0
2015-Aug-30 11:32N 36°21' E 025°25'4 4.5
2015-Aug-30 10:33N 36°25' E 025°25'2 1.9
2015-Aug-30 09:32N 36°24' E 025°23'0 0.0
2015-Aug-30 08:32N 36°24' E 025°23'0 0.0
2015-Aug-30 07:32N 36°24' E 025°23'0 0.0
2015-Aug-30 06:32N 36°24' E 025°23'0 0.0
2015-Aug-30 05:32N 36°24' E 025°23'1 0.6
2015-Aug-30 04:33N 36°23' E 025°23'1110.7
2015-Aug-30 03:33N 36°33' E 025°28'1312.7
2015-Aug-30 02:33N 36°40' E 025°41'1313.2
2015-Aug-30 01:32N 36°47' E 025°56'49 3.7
2015-Aug-29 12:26N 37°16' E 026°44'  
Track history (hours):
 
Tides and Currents Weather Stations Pressure Air Temp Water Temp Dewpoint Dewpoint Depression Visibility Wind Speed Wind Dir Waves Ship Positions

Laurel

Last reported at 2015-Aug-31 13:09 UTC. Time now 2015-Sep-01 03:59 UTC.
Position N 37°21' E 023°28'.

Length 73 m; draft 3.7 m.

Type: Pleasure craft. MMSI: 319914000.

Date/timePositionNaut miles runAvg speedWind from/ knotsBaromVisibWave heightAir tempDewpointWater temp
2015-Aug-31 13:09N 37°21' E 023°28'1 0.6
2015-Aug-31 11:28N 37°21' E 023°27'96 7.3
2015-Aug-30 22:21N 36°21' E 024°60'1113.9
2015-Aug-30 21:33N 36°21' E 025°13'9 8.9
2015-Aug-30 20:30N 36°21' E 025°25'0 0.0
2015-Aug-30 19:06N 36°21' E 025°25'0 0.0
2015-Aug-30 17:27N 36°21' E 025°25'0 0.0
2015-Aug-30 13:30N 36°21' E 025°25'0 0.0
2015-Aug-30 12:24N 36°21' E 025°25'0 0.0
2015-Aug-30 11:32N 36°21' E 025°25'4 4.5
2015-Aug-30 10:33N 36°25' E 025°25'2 1.9
2015-Aug-30 09:32N 36°24' E 025°23'0 0.0
2015-Aug-30 08:32N 36°24' E 025°23'0 0.0
2015-Aug-30 07:32N 36°24' E 025°23'0 0.0
2015-Aug-30 06:32N 36°24' E 025°23'0 0.0
2015-Aug-30 05:32N 36°24' E 025°23'1 0.6
2015-Aug-30 04:33N 36°23' E 025°23'1110.7
2015-Aug-30 03:33N 36°33' E 025°28'1312.7
2015-Aug-30 02:33N 36°40' E 025°41'1313.2
2015-Aug-30 01:32N 36°47' E 025°56'49 3.7
2015-Aug-29 12:26N 37°16' E 026°44'  

Dump ship's entire track history